createdAt,value
2023-02-21T00:01:51.769Z,23.37
2023-02-21T00:04:37.281Z,23.00
2023-02-21T00:07:22.458Z,22.50
2023-02-21T00:10:07.701Z,22.63
2023-02-21T00:12:53.311Z,23.23
2023-02-21T00:15:40.559Z,22.60
2023-02-21T00:18:25.932Z,21.20
2023-02-21T00:21:11.719Z,21.90
2023-02-21T00:23:56.971Z,21.83
2023-02-21T00:29:16.369Z,22.60
2023-02-21T00:32:02.919Z,21.77
2023-02-21T00:34:48.317Z,21.77
2023-02-21T00:37:33.371Z,21.03
2023-02-21T00:40:18.736Z,20.40
2023-02-21T00:43:04.024Z,20.00
2023-02-21T00:45:49.395Z,21.03
2023-02-21T00:48:39.690Z,20.37
2023-02-21T00:51:25.169Z,20.60
2023-02-21T00:54:10.522Z,20.60
2023-02-21T00:56:56.745Z,19.50
2023-02-21T00:59:42.108Z,18.70
2023-02-21T01:02:27.400Z,19.43
2023-02-21T01:05:14.093Z,19.50
2023-02-21T01:07:59.195Z,20.97
2023-02-21T01:10:44.732Z,21.07
2023-02-21T01:13:29.963Z,20.27
2023-02-21T01:16:15.393Z,20.10
2023-02-21T01:19:00.685Z,20.00
2023-02-21T01:21:47.389Z,20.00
2023-02-21T01:24:33.882Z,21.10
2023-02-21T01:27:19.431Z,20.60
2023-02-21T01:30:04.907Z,20.70
2023-02-21T01:32:50.432Z,21.27
2023-02-21T01:35:35.923Z,22.47
2023-02-21T01:38:22.525Z,20.13
2023-02-21T01:41:07.991Z,22.63
2023-02-21T01:43:53.170Z,22.23
2023-02-21T01:46:39.255Z,22.77
2023-02-21T01:49:25.879Z,21.47
2023-02-21T01:52:11.555Z,23.57
2023-02-21T01:54:59.990Z,22.93
2023-02-21T01:57:45.095Z,24.57
2023-02-21T02:00:31.674Z,24.10
2023-02-21T02:03:18.409Z,24.13
2023-02-21T02:06:05.385Z,24.13
2023-02-21T02:08:50.575Z,23.93
2023-02-21T02:11:49.028Z,23.37
2023-02-21T02:14:26.985Z,24.23
2023-02-21T02:16:57.643Z,22.73
2023-02-21T02:20:00.345Z,24.73
2023-02-21T02:22:49.936Z,26.00
2023-02-21T02:25:22.806Z,25.30
2023-02-21T02:28:11.949Z,25.10
2023-02-21T02:31:10.590Z,27.47
2023-02-21T02:34:03.284Z,26.10
2023-02-21T02:36:35.256Z,24.40
2023-02-21T02:39:06.846Z,28.07
2023-02-21T02:41:39.814Z,27.10
2023-02-21T02:44:10.315Z,29.13
2023-02-21T02:46:38.854Z,29.87
2023-02-21T02:49:08.389Z,28.30
2023-02-21T02:51:37.449Z,29.23
2023-02-21T02:54:05.595Z,29.10
2023-02-21T02:56:35.184Z,29.07
2023-02-21T02:59:05.171Z,29.13
2023-02-21T03:01:53.386Z,30.50
2023-02-21T03:04:38.278Z,30.10
2023-02-21T03:07:09.306Z,29.87
2023-02-21T03:09:41.863Z,31.30
2023-02-21T03:12:11.177Z,28.93
2023-02-21T03:14:40.275Z,30.47
2023-02-21T03:17:10.293Z,30.50
2023-02-21T03:19:39.693Z,30.50
2023-02-21T03:22:09.462Z,30.77
2023-02-21T03:24:38.473Z,31.10
2023-02-21T03:27:07.976Z,31.37
2023-02-21T03:29:35.863Z,30.23
2023-02-21T03:32:10.665Z,31.13
2023-02-21T03:34:39.104Z,30.87
2023-02-21T03:37:08.398Z,31.17
2023-02-21T03:39:36.104Z,32.33
2023-02-21T03:42:04.050Z,31.77
2023-02-21T03:44:31.710Z,33.03
2023-02-21T03:46:59.555Z,31.87
2023-02-21T03:49:27.289Z,30.53
2023-02-21T03:51:55.138Z,30.27
2023-02-21T03:54:24.148Z,31.97
2023-02-21T03:56:52.178Z,30.77
2023-02-21T03:59:19.867Z,31.77
2023-02-21T04:01:48.793Z,31.90
2023-02-21T04:04:16.530Z,31.33
2023-02-21T04:06:44.413Z,31.43
2023-02-21T04:09:12.075Z,32.17
2023-02-21T04:11:43.705Z,32.53
2023-02-21T04:14:11.713Z,30.10
2023-02-21T04:16:39.593Z,30.93
2023-02-21T04:19:07.298Z,31.03
2023-02-21T04:21:35.166Z,33.07
2023-02-21T04:24:02.831Z,31.73
2023-02-21T04:26:30.924Z,31.53
2023-02-21T04:28:59.984Z,32.03
2023-02-21T04:31:27.792Z,30.63
2023-02-21T04:34:10.592Z,31.83
2023-02-21T04:36:39.522Z,31.03
2023-02-21T04:39:07.768Z,32.03
2023-02-21T04:41:35.579Z,30.63
2023-02-21T04:44:06.231Z,30.33
2023-02-21T04:46:33.934Z,30.93
2023-02-21T04:49:01.811Z,29.63
2023-02-21T04:51:29.452Z,33.10
2023-02-21T04:53:57.394Z,30.90
2023-02-21T04:56:26.020Z,31.57
2023-02-21T04:58:53.864Z,30.83
2023-02-21T05:01:23.197Z,30.53
2023-02-21T05:03:51.194Z,31.43
2023-02-21T05:06:19.672Z,31.57
2023-02-21T05:08:47.638Z,31.47
2023-02-21T05:11:15.754Z,30.57
2023-02-21T05:13:43.838Z,30.73
2023-02-21T05:16:11.685Z,31.57
2023-02-21T05:18:42.576Z,31.70
2023-02-21T05:21:10.244Z,31.67
2023-02-21T05:23:39.951Z,30.83
2023-02-21T05:26:08.872Z,33.63
2023-02-21T05:28:36.620Z,32.87
2023-02-21T05:31:04.652Z,32.27
2023-02-21T05:33:32.689Z,32.73
2023-02-21T05:36:01.967Z,32.47
2023-02-21T05:38:29.656Z,32.33
2023-02-21T05:40:57.400Z,33.07
2023-02-21T05:43:26.407Z,33.70
2023-02-21T05:45:55.247Z,33.77
2023-02-21T05:48:24.501Z,33.37
2023-02-21T05:50:52.438Z,34.50
2023-02-21T05:53:21.516Z,32.60
2023-02-21T05:55:49.359Z,32.40
2023-02-21T05:58:17.063Z,33.80
2023-02-21T06:00:44.764Z,33.73
2023-02-21T06:03:12.754Z,35.10
2023-02-21T06:05:40.482Z,34.23
2023-02-21T06:08:10.720Z,34.80
2023-02-21T06:10:41.145Z,34.23
2023-02-21T06:13:09.002Z,35.30
2023-02-21T06:15:36.712Z,34.43
2023-02-21T06:18:04.957Z,32.77
2023-02-21T06:20:32.715Z,35.40
2023-02-21T06:23:00.571Z,35.53
2023-02-21T06:30:45.896Z,35.57
2023-02-21T06:33:13.680Z,35.80
2023-02-21T06:35:41.419Z,34.23
2023-02-21T06:38:09.060Z,35.23
2023-02-21T06:40:36.885Z,35.80
2023-02-21T06:43:04.568Z,35.93
2023-02-21T06:45:32.223Z,35.50
2023-02-21T06:48:03.011Z,34.90
2023-02-21T06:50:31.410Z,34.83
2023-02-21T06:52:59.256Z,36.73
2023-02-21T06:55:27.041Z,36.40
2023-02-21T06:57:54.768Z,37.03
2023-02-21T07:00:22.950Z,36.93
2023-02-21T07:02:50.715Z,38.83
2023-02-21T07:05:21.672Z,36.80
2023-02-21T07:07:49.464Z,37.60
2023-02-21T07:10:17.955Z,35.83
2023-02-21T07:12:45.651Z,35.63
2023-02-21T07:15:13.834Z,36.50
2023-02-21T07:17:41.831Z,35.87
2023-02-21T07:20:10.713Z,37.63
2023-02-21T07:22:39.955Z,36.20
2023-02-21T07:25:07.868Z,36.50
2023-02-21T07:27:35.871Z,34.93
2023-02-21T07:30:03.916Z,36.37
2023-02-21T07:32:31.690Z,36.10
2023-02-21T07:34:59.333Z,36.80
2023-02-21T07:37:28.378Z,37.37
2023-02-21T07:39:57.477Z,36.73
2023-02-21T07:42:25.190Z,36.10
2023-02-21T07:44:56.816Z,35.70
2023-02-21T07:47:24.622Z,37.47
2023-02-21T07:49:54.069Z,36.33
2023-02-21T07:52:21.993Z,34.87
2023-02-21T07:54:49.752Z,36.77
2023-02-21T07:57:19.192Z,36.67
2023-02-21T07:59:46.932Z,36.97
2023-02-21T08:05:38.584Z,34.83
2023-02-21T08:08:08.319Z,34.30
2023-02-21T08:10:36.070Z,33.23
2023-02-21T08:13:05.611Z,33.77
2023-02-21T08:15:33.423Z,34.13
2023-02-21T08:18:01.064Z,32.23
2023-02-21T08:20:28.951Z,30.03
2023-02-21T08:23:04.207Z,28.33
2023-02-21T08:25:32.208Z,27.07
2023-02-21T08:28:00.049Z,27.43
2023-02-21T08:30:29.298Z,27.40
2023-02-21T08:32:57.093Z,26.43
2023-02-21T08:35:34.079Z,24.97
2023-02-21T08:38:03.210Z,26.03
2023-02-21T08:40:31.425Z,26.10
2023-02-21T08:43:00.124Z,24.30
2023-02-21T08:45:30.482Z,23.57
2023-02-21T08:47:58.878Z,24.40
2023-02-21T08:50:27.852Z,22.80
2023-02-21T08:52:56.643Z,24.33
2023-02-21T08:55:24.590Z,23.07
2023-02-21T08:57:53.569Z,22.83
2023-02-21T09:00:24.336Z,23.63
2023-02-21T09:02:53.512Z,23.20
2023-02-21T09:05:24.418Z,24.33
2023-02-21T09:07:55.018Z,24.67
2023-02-21T09:10:22.801Z,22.57
2023-02-21T09:12:50.604Z,23.03
2023-02-21T09:15:18.979Z,23.37
2023-02-21T09:17:46.990Z,23.43
2023-02-21T09:20:19.571Z,24.47
2023-02-21T09:22:47.520Z,22.30
2023-02-21T09:25:15.605Z,22.83
2023-02-21T09:27:43.273Z,22.63
2023-02-21T09:30:12.634Z,23.93
2023-02-21T09:32:41.694Z,20.23
2023-02-21T09:35:09.872Z,19.43
2023-02-21T09:37:40.856Z,20.40
2023-02-21T09:40:12.058Z,18.93
2023-02-21T09:42:41.379Z,20.00
2023-02-21T09:45:15.110Z,20.47
2023-02-21T09:47:43.018Z,19.03
2023-02-21T09:50:13.704Z,17.90
2023-02-21T09:52:42.905Z,17.23
2023-02-21T09:55:15.650Z,22.50
2023-02-21T09:57:43.458Z,23.27
2023-02-21T10:00:19.573Z,21.27
2023-02-21T10:02:53.764Z,22.83
2023-02-21T10:05:23.992Z,19.83
2023-02-21T10:07:57.596Z,20.20
2023-02-21T10:10:28.208Z,18.60
2023-02-21T10:12:59.174Z,17.93
2023-02-21T10:15:40.785Z,17.93
2023-02-21T10:18:11.497Z,17.67
2023-02-21T10:20:40.385Z,17.90
2023-02-21T10:23:15.569Z,16.43
2023-02-21T10:25:43.815Z,18.63
2023-02-21T10:28:15.521Z,16.10
2023-02-21T10:30:43.291Z,17.87
2023-02-21T10:33:11.162Z,16.37
2023-02-21T10:35:39.498Z,17.30
2023-02-21T10:38:08.678Z,17.13
2023-02-21T10:40:39.103Z,17.90
2023-02-21T10:43:09.984Z,17.63
2023-02-21T10:45:39.526Z,18.70
2023-02-21T10:48:08.196Z,17.83
2023-02-21T10:50:44.766Z,18.37
2023-02-21T10:53:25.157Z,19.20
2023-02-21T10:56:22.875Z,20.50
2023-02-21T10:58:51.816Z,17.63
2023-02-21T11:01:21.289Z,17.73
2023-02-21T11:03:50.675Z,18.43
2023-02-21T11:06:28.341Z,18.23
2023-02-21T11:08:56.565Z,17.57
2023-02-21T11:11:36.962Z,19.07
2023-02-21T11:14:31.948Z,16.87
2023-02-21T11:17:07.417Z,17.23
2023-02-21T11:19:49.514Z,18.00
2023-02-21T11:22:18.344Z,17.70
2023-02-21T11:24:55.078Z,19.90
2023-02-21T11:27:24.108Z,19.00
2023-02-21T11:29:52.835Z,17.60
2023-02-21T11:32:29.028Z,18.50
2023-02-21T11:35:04.237Z,18.00
2023-02-21T11:37:33.033Z,17.60
2023-02-21T11:40:01.989Z,17.57
2023-02-21T11:42:32.381Z,18.03
2023-02-21T11:45:22.174Z,17.97
2023-02-21T11:47:55.984Z,19.03
2023-02-21T11:50:26.056Z,19.43
2023-02-21T11:52:57.540Z,18.30
2023-02-21T11:55:26.664Z,17.90
2023-02-21T11:58:02.800Z,17.60
2023-02-21T12:00:32.441Z,17.47
2023-02-21T12:03:27.935Z,17.57
2023-02-21T12:05:58.531Z,18.07
2023-02-21T12:08:46.679Z,17.00
2023-02-21T12:11:27.845Z,18.30
2023-02-21T12:16:38.504Z,18.10
2023-02-21T12:19:22.281Z,17.07
2023-02-21T12:22:01.053Z,16.63
2023-02-21T12:24:49.469Z,16.37
2023-02-21T12:29:53.172Z,18.30
2023-02-21T12:32:30.651Z,18.57
2023-02-21T12:35:11.837Z,17.70
2023-02-21T12:37:42.507Z,19.10
2023-02-21T12:40:17.167Z,17.97
2023-02-21T12:42:53.371Z,17.57
2023-02-21T12:45:39.302Z,19.03
2023-02-21T12:48:12.609Z,17.90
2023-02-21T12:50:41.473Z,18.57
2023-02-21T12:53:12.661Z,19.20
2023-02-21T12:55:41.382Z,19.13
2023-02-21T12:58:13.420Z,18.60
2023-02-21T13:00:44.126Z,19.37
2023-02-21T13:03:23.610Z,19.07
2023-02-21T13:05:53.627Z,19.33
2023-02-21T13:08:23.852Z,18.67
2023-02-21T13:10:53.942Z,19.10
2023-02-21T13:13:23.763Z,19.70
2023-02-21T13:15:54.021Z,19.70
2023-02-21T13:18:25.578Z,19.93
2023-02-21T13:20:54.679Z,19.10
2023-02-21T13:23:22.383Z,20.30
2023-02-21T13:25:59.127Z,19.73
2023-02-21T13:28:27.983Z,19.43
2023-02-21T13:30:59.579Z,19.13
2023-02-21T13:33:38.416Z,19.83
2023-02-21T13:36:19.708Z,19.83
2023-02-21T13:38:47.441Z,18.83
2023-02-21T13:41:16.765Z,18.97
2023-02-21T13:43:47.602Z,18.20
2023-02-21T13:46:40.619Z,19.17
2023-02-21T13:49:44.636Z,17.40
2023-02-21T13:52:27.280Z,17.20
2023-02-21T13:55:26.237Z,18.03
2023-02-21T13:58:38.886Z,16.93
2023-02-21T14:01:48.066Z,16.87
2023-02-21T14:05:01.636Z,17.90
2023-02-21T14:07:58.930Z,17.80
2023-02-21T14:10:34.090Z,18.50
2023-02-21T14:13:03.594Z,17.50
2023-02-21T14:15:43.091Z,17.87
2023-02-21T14:18:18.974Z,17.80
2023-02-21T14:20:49.216Z,17.50
2023-02-21T14:23:18.864Z,18.50
2023-02-21T14:25:57.888Z,19.57
2023-02-21T14:29:01.848Z,18.97
2023-02-21T14:31:52.347Z,19.30
2023-02-21T14:34:24.366Z,19.50
2023-02-21T14:36:52.711Z,19.17
2023-02-21T14:39:21.895Z,19.97
2023-02-21T14:42:01.332Z,19.87
2023-02-21T14:44:31.365Z,20.30
2023-02-21T14:47:27.398Z,20.60
2023-02-21T14:50:00.730Z,21.97
2023-02-21T14:52:51.442Z,21.17
2023-02-21T14:55:27.189Z,22.27
2023-02-21T14:58:19.254Z,22.67
2023-02-21T15:00:57.682Z,22.30
2023-02-21T15:03:28.704Z,22.83
2023-02-21T15:06:06.250Z,23.67
2023-02-21T15:08:41.516Z,24.27
2023-02-21T15:11:18.933Z,25.03
2023-02-21T15:13:46.707Z,24.23
2023-02-21T15:16:15.106Z,25.40
2023-02-21T15:18:59.833Z,25.93
2023-02-21T15:21:27.630Z,26.67
2023-02-21T15:24:08.371Z,27.23
2023-02-21T15:26:37.365Z,29.53
2023-02-21T15:29:06.153Z,27.37
2023-02-21T15:31:34.465Z,27.53
2023-02-21T15:34:02.204Z,26.87
2023-02-21T15:36:31.258Z,27.73
2023-02-21T15:39:02.677Z,25.90
2023-02-21T15:41:33.382Z,26.80
2023-02-21T15:44:04.169Z,27.43
2023-02-21T15:46:38.958Z,26.53
2023-02-21T15:49:06.625Z,26.23
2023-02-21T15:51:34.422Z,27.43
2023-02-21T15:54:23.431Z,25.17
2023-02-21T15:57:01.650Z,47.57
2023-02-21T15:59:30.753Z,25.93
2023-02-21T16:02:22.571Z,26.57
2023-02-21T16:04:50.903Z,25.07
2023-02-21T16:07:21.958Z,24.30
2023-02-21T16:09:50.573Z,25.83
2023-02-21T16:12:36.105Z,27.67
2023-02-21T16:15:09.038Z,31.47
2023-02-21T16:17:37.772Z,27.63
2023-02-21T16:20:16.556Z,26.27
2023-02-21T16:25:36.675Z,26.40
2023-02-21T16:28:07.470Z,26.23
2023-02-21T16:30:39.163Z,25.37
2023-02-21T16:33:07.015Z,25.97
2023-02-21T16:35:35.094Z,26.27
2023-02-21T16:38:02.828Z,26.67
2023-02-21T16:40:31.717Z,28.00
2023-02-21T16:43:02.048Z,26.57
2023-02-21T16:45:30.330Z,27.40
2023-02-21T16:48:01.414Z,27.07
2023-02-21T16:50:31.373Z,28.17
2023-02-21T16:52:59.144Z,29.50
2023-02-21T16:55:26.844Z,29.17
2023-02-21T16:57:56.500Z,27.97
2023-02-21T17:00:24.247Z,29.50
2023-02-21T17:02:54.767Z,27.17
2023-02-21T17:05:24.777Z,28.40
2023-02-21T17:07:53.018Z,26.40
2023-02-21T17:10:20.901Z,27.00
2023-02-21T17:12:48.907Z,29.40
2023-02-21T17:15:16.974Z,27.67
2023-02-21T17:17:52.629Z,28.47
2023-02-21T17:20:21.400Z,29.03
2023-02-21T17:22:50.568Z,29.87
2023-02-21T17:25:18.606Z,30.57
2023-02-21T17:27:46.258Z,30.63
2023-02-21T17:30:14.850Z,29.33
2023-02-21T17:32:46.958Z,27.97
2023-02-21T17:35:15.354Z,28.23
2023-02-21T17:37:43.250Z,29.90
2023-02-21T17:40:12.905Z,28.93
2023-02-21T17:42:41.654Z,28.43
2023-02-21T17:45:10.099Z,26.70
2023-02-21T17:47:37.946Z,28.17
2023-02-21T17:50:06.589Z,29.50
2023-02-21T17:52:34.246Z,28.47
2023-02-21T17:55:07.533Z,27.83
2023-02-21T17:57:37.889Z,28.67
2023-02-21T18:00:09.364Z,28.63
2023-02-21T18:02:37.026Z,28.17
2023-02-21T18:05:04.958Z,26.83
2023-02-21T18:07:33.080Z,27.63
2023-02-21T18:10:01.173Z,27.23
2023-02-21T18:12:28.866Z,28.20
2023-02-21T18:14:57.937Z,26.73
2023-02-21T18:17:25.672Z,27.03
2023-02-21T18:19:53.432Z,26.80
2023-02-21T18:22:21.137Z,28.43
2023-02-21T18:24:48.856Z,27.83
2023-02-21T18:27:16.802Z,31.80
2023-02-21T18:29:44.680Z,29.37
2023-02-21T18:32:13.734Z,28.53
2023-02-21T18:34:41.469Z,29.20
2023-02-21T18:37:09.192Z,30.57
2023-02-21T18:39:36.899Z,29.03
2023-02-21T18:42:04.882Z,31.60
2023-02-21T18:44:32.839Z,28.80
2023-02-21T18:47:01.590Z,30.40
2023-02-21T18:49:33.995Z,29.70
2023-02-21T18:52:06.952Z,28.67
2023-02-21T18:54:35.270Z,31.83
2023-02-21T18:57:03.163Z,32.27
2023-02-21T18:59:30.841Z,32.10
2023-02-21T19:01:58.525Z,33.63
2023-02-21T19:04:26.499Z,31.53
2023-02-21T19:06:55.703Z,33.60
2023-02-21T19:09:23.359Z,32.53
2023-02-21T19:11:51.865Z,33.10
2023-02-21T19:14:19.637Z,35.40
2023-02-21T19:16:47.332Z,33.17
2023-02-21T19:19:15.027Z,32.77
2023-02-21T19:21:42.699Z,31.43
2023-02-21T19:24:11.742Z,31.00
2023-02-21T19:26:41.391Z,33.07
2023-02-21T19:29:09.489Z,32.03
2023-02-21T19:31:37.312Z,31.83
2023-02-21T19:34:05.059Z,31.40
2023-02-21T19:36:32.734Z,30.93
2023-02-21T19:39:00.456Z,32.17
2023-02-21T19:41:29.608Z,32.80
2023-02-21T19:43:57.258Z,31.53
2023-02-21T19:46:26.135Z,30.23
2023-02-21T19:48:54.403Z,31.17
2023-02-21T19:51:23.326Z,33.50
2023-02-21T19:53:51.028Z,33.13
2023-02-21T19:56:18.720Z,33.20
2023-02-21T19:58:47.887Z,31.43
2023-02-21T20:01:16.031Z,29.93
2023-02-21T20:03:44.361Z,30.47
2023-02-21T20:06:13.096Z,30.90
2023-02-21T20:08:40.849Z,31.50
2023-02-21T20:11:09.532Z,32.43
2023-02-21T20:13:38.508Z,32.73
2023-02-21T20:16:07.724Z,32.60
2023-02-21T20:18:35.361Z,30.67
2023-02-21T20:21:03.599Z,31.30
2023-02-21T20:23:31.451Z,43.33
2023-02-21T20:25:59.200Z,31.90
2023-02-21T20:28:26.876Z,31.47
2023-02-21T20:30:54.588Z,30.87
2023-02-21T20:33:24.693Z,29.30
2023-02-21T20:35:52.613Z,30.27
2023-02-21T20:38:21.720Z,30.40
2023-02-21T20:40:49.978Z,30.70
2023-02-21T20:43:17.711Z,31.27
2023-02-21T20:45:45.710Z,30.10
2023-02-21T20:48:13.424Z,31.70
2023-02-21T20:50:42.458Z,29.07
2023-02-21T20:53:11.773Z,27.70
2023-02-21T20:55:41.617Z,29.00
2023-02-21T20:58:10.411Z,26.63
2023-02-21T21:00:38.254Z,26.80
2023-02-21T21:03:06.182Z,25.20
2023-02-21T21:05:33.871Z,26.50
2023-02-21T21:08:02.963Z,25.57
2023-02-21T21:10:30.681Z,36.30
2023-02-21T21:12:58.638Z,26.83
2023-02-21T21:15:26.342Z,25.60
2023-02-21T21:17:54.062Z,26.03
2023-02-21T21:20:22.846Z,25.73
2023-02-21T21:22:50.589Z,25.73
2023-02-21T21:25:22.535Z,25.37
2023-02-21T21:27:50.305Z,25.90
2023-02-21T21:30:22.613Z,23.47
2023-02-21T21:32:50.661Z,26.27
2023-02-21T21:35:19.729Z,25.17
2023-02-21T21:37:47.792Z,24.77
2023-02-21T21:40:16.752Z,25.07
2023-02-21T21:42:46.616Z,26.00
2023-02-21T21:45:19.242Z,25.20
2023-02-21T21:47:47.255Z,25.67
2023-02-21T21:50:16.133Z,24.93
2023-02-21T21:52:45.023Z,26.83
2023-02-21T21:55:19.735Z,25.40
2023-02-21T21:57:53.205Z,28.30
2023-02-21T22:00:22.522Z,26.60
2023-02-21T22:02:51.287Z,25.73
2023-02-21T22:05:21.160Z,25.50
2023-02-21T22:07:49.061Z,24.53
2023-02-21T22:10:18.989Z,23.70
2023-02-21T22:12:49.917Z,22.83
2023-02-21T22:15:21.181Z,22.63
2023-02-21T22:17:48.919Z,22.70
2023-02-21T22:20:19.253Z,21.63
2023-02-21T22:22:48.887Z,20.73
2023-02-21T22:25:17.127Z,21.77
2023-02-21T22:27:44.855Z,22.33
2023-02-21T22:30:16.234Z,21.17
2023-02-21T22:32:44.134Z,20.67
2023-02-21T22:35:18.093Z,22.37
2023-02-21T22:37:47.461Z,21.50
2023-02-21T22:40:18.333Z,23.20
2023-02-21T22:42:46.104Z,22.27
2023-02-21T22:45:17.060Z,23.67
2023-02-21T22:47:45.735Z,23.50
2023-02-21T22:50:15.221Z,23.50
2023-02-21T22:52:43.004Z,23.97
2023-02-21T22:55:10.812Z,23.73
2023-02-21T22:57:38.470Z,23.17
2023-02-21T23:00:19.072Z,22.53
2023-02-21T23:02:48.431Z,22.07
2023-02-21T23:05:19.425Z,22.20
2023-02-21T23:07:49.048Z,23.53
2023-02-21T23:10:17.558Z,24.20
2023-02-21T23:12:47.179Z,24.57
2023-02-21T23:15:16.771Z,23.87
2023-02-21T23:17:44.416Z,23.80
2023-02-21T23:20:16.676Z,26.13
2023-02-21T23:22:45.031Z,23.40
2023-02-21T23:25:20.586Z,24.60
2023-02-21T23:27:49.094Z,24.23
2023-02-21T23:30:17.476Z,23.83
2023-02-21T23:32:45.234Z,25.43
2023-02-21T23:35:16.065Z,23.90
2023-02-21T23:37:44.261Z,22.93
2023-02-21T23:40:17.424Z,24.10
2023-02-21T23:42:46.201Z,22.93
2023-02-21T23:45:14.031Z,23.27
2023-02-21T23:47:43.035Z,19.90
2023-02-21T23:50:17.140Z,18.93
2023-02-21T23:52:49.710Z,18.73
2023-02-21T23:55:18.353Z,17.53
2023-02-21T23:57:46.751Z,18.03
